Time;durP1;ratioP1;P1;durP2;ratioP2;P2;SDS_P1;SDS_P2;PMS_P1;PMS_P2;Temp;Humidity;BMP_temperature;BMP_pressure;BME280_temperature;BME280_humidity;BME280_pressure;Samples;Min_cycle;Max_cycle;Signal;HPM_P1;HPM_P2
2022/05/01 00:01:20;;;;;;;21.60;12.10;;;9.80;73.40;;;;;;5054177;28;20053;-72
2022/05/01 00:03:48;;;;;;;17.10;12.32;;;9.70;73.50;;;;;;5066647;28;20477;-72
2022/05/01 00:06:15;;;;;;;17.27;11.75;;;9.70;73.70;;;;;;5073831;28;20540;-72
2022/05/01 00:08:43;;;;;;;20.45;11.93;;;9.70;73.80;;;;;;5076254;28;20063;-72
2022/05/01 00:11:12;;;;;;;19.40;11.52;;;9.70;73.90;;;;;;5076016;28;20068;-72
2022/05/01 00:13:45;;;;;;;17.38;12.38;;;9.70;74.20;;;;;;5075064;28;20386;-72
2022/05/01 00:16:13;;;;;;;21.70;12.77;;;9.70;74.20;;;;;;5074803;28;20053;-72
2022/05/01 00:18:41;;;;;;;22.08;12.77;;;9.70;74.40;;;;;;5074191;28;20052;-72
2022/05/01 00:21:09;;;;;;;23.08;12.98;;;9.70;74.60;;;;;;5074676;28;20044;-72
2022/05/01 00:23:37;;;;;;;17.20;12.23;;;9.60;74.60;;;;;;5073902;28;20048;-72
2022/05/01 00:26:06;;;;;;;18.83;10.98;;;9.60;74.70;;;;;;5060737;28;20049;-72
2022/05/01 00:28:39;;;;;;;19.42;12.38;;;9.60;74.90;;;;;;5053817;28;20398;-72
2022/05/01 00:31:08;;;;;;;19.13;12.07;;;9.60;74.70;;;;;;5054382;28;20056;-72
2022/05/01 00:36:26;;;;;;;20.40;12.95;;;9.50;75.00;;;;;;5040770;28;20049;-72
2022/05/01 00:39:04;;;;;;;26.45;13.60;;;9.50;75.00;;;;;;5074984;28;20056;-72
2022/05/01 00:41:35;;;;;;;19.33;13.15;;;9.50;75.30;;;;;;5073724;28;20486;-72
2022/05/01 00:44:12;;;;;;;16.10;12.15;;;9.50;75.20;;;;;;5074570;28;20048;-72
2022/05/01 00:46:46;;;;;;;16.98;11.23;;;9.50;75.20;;;;;;5074705;28;20044;-72
2022/05/01 00:49:20;;;;;;;21.10;13.02;;;9.50;75.60;;;;;;5061644;28;20056;-73
2022/05/01 00:51:52;;;;;;;22.58;12.70;;;9.40;75.50;;;;;;5073585;28;20387;-72
2022/05/01 00:54:22;;;;;;;20.95;12.25;;;9.40;75.30;;;;;;5065233;28;20056;-72
2022/05/01 00:56:52;;;;;;;17.65;11.82;;;9.40;75.60;;;;;;5074270;28;20048;-71
2022/05/01 00:59:22;;;;;;;17.58;12.50;;;9.40;75.90;;;;;;5066356;28;20036;-71
2022/05/01 01:01:50;;;;;;;22.38;12.63;;;9.40;75.90;;;;;;5055184;28;20049;-71
2022/05/01 01:04:19;;;;;;;19.23;12.85;;;9.30;75.70;;;;;;5066794;28;20188;-71
2022/05/01 01:06:48;;;;;;;20.48;12.65;;;9.30;75.70;;;;;;5057348;28;20049;-71
2022/05/01 01:09:17;;;;;;;19.00;11.95;;;9.30;76.00;;;;;;5066318;28;20493;-71
2022/05/01 01:11:45;;;;;;;19.30;13.10;;;9.30;76.00;;;;;;5055028;28;20060;-71
2022/05/01 01:14:14;;;;;;;19.10;12.32;;;9.30;76.20;;;;;;5060014;28;20073;-71
2022/05/01 01:16:44;;;;;;;18.30;12.63;;;9.30;76.30;;;;;;5062801;28;20049;-71
2022/05/01 01:19:12;;;;;;;22.58;12.13;;;9.30;76.40;;;;;;5054243;28;20458;-71
2022/05/01 01:21:40;;;;;;;19.88;12.63;;;9.30;76.50;;;;;;5035734;28;20065;-71
2022/05/01 01:24:10;;;;;;;21.70;12.85;;;9.30;76.60;;;;;;5065841;28;20036;-71
2022/05/01 01:26:39;;;;;;;18.25;12.38;;;9.30;76.60;;;;;;5054195;28;20383;-72
2022/05/01 01:31:55;;;;;;;14.02;9.95;;;9.30;76.60;;;;;;5053507;28;20048;-72
2022/05/01 01:34:31;;;;;;;18.45;12.40;;;9.30;76.70;;;;;;5063050;28;20048;-72
2022/05/01 01:37:00;;;;;;;22.13;12.57;;;9.30;76.80;;;;;;5053081;28;20044;-70
2022/05/01 01:39:28;;;;;;;18.05;12.02;;;9.30;76.80;;;;;;5053272;28;20372;-70
2022/05/01 01:41:57;;;;;;;16.13;11.30;;;9.20;77.00;;;;;;5064406;28;20486;-71
2022/05/01 01:44:29;;;;;;;16.38;11.82;;;9.20;77.00;;;;;;5054646;28;20044;-71
2022/05/01 01:46:57;;;;;;;20.35;11.40;;;9.20;77.00;;;;;;5056957;28;20040;-71
2022/05/01 01:49:24;;;;;;;17.02;11.48;;;9.20;77.00;;;;;;5061672;28;20041;-71
2022/05/01 01:51:52;;;;;;;17.52;11.95;;;9.20;77.10;;;;;;5053254;28;20045;-71
2022/05/01 01:54:19;;;;;;;18.38;11.63;;;9.20;77.40;;;;;;5058065;28;20044;-71
2022/05/01 01:56:47;;;;;;;18.33;11.68;;;9.10;77.60;;;;;;5071735;28;20048;-71
2022/05/01 01:59:14;;;;;;;17.60;11.57;;;9.10;77.90;;;;;;5068238;28;20040;-71
2022/05/01 02:01:43;;;;;;;21.10;12.02;;;9.00;78.20;;;;;;5053887;28;20498;-71
2022/05/01 02:04:11;;;;;;;16.67;11.70;;;9.00;78.20;;;;;;5055632;28;20067;-71
2022/05/01 02:06:39;;;;;;;15.95;10.50;;;9.00;79.00;;;;;;5061495;28;20045;-71
2022/05/01 02:09:07;;;;;;;20.77;12.27;;;9.00;79.30;;;;;;5063152;28;20052;-71
2022/05/01 02:11:36;;;;;;;19.38;11.48;;;8.90;79.40;;;;;;5068785;28;20414;-71
2022/05/01 02:14:05;;;;;;;18.80;11.55;;;8.80;79.80;;;;;;5035268;28;20044;-71
2022/05/01 02:16:33;;;;;;;18.67;11.98;;;8.80;80.10;;;;;;5053075;28;20497;-70
2022/05/01 02:19:01;;;;;;;20.10;13.02;;;8.80;80.60;;;;;;5035036;28;20052;-70
2022/05/01 02:21:35;;;;;;;17.90;12.60;;;8.80;80.70;;;;;;5053065;28;20056;-71
2022/05/01 02:24:06;;;;;;;19.30;12.13;;;8.70;80.90;;;;;;5035558;28;20052;-71
2022/05/01 02:26:35;;;;;;;19.00;12.40;;;8.70;81.40;;;;;;5057671;28;20049;-72
2022/05/01 02:29:09;;;;;;;17.38;12.10;;;8.60;81.40;;;;;;5072883;28;20056;-71
2022/05/01 02:31:41;;;;;;;18.92;11.82;;;8.60;81.50;;;;;;5071701;28;20048;-72
2022/05/01 02:34:10;;;;;;;19.85;11.18;;;8.60;81.40;;;;;;5072386;28;20406;-72
2022/05/01 02:36:39;;;;;;;23.65;12.40;;;8.60;81.60;;;;;;5072532;28;20100;-72
2022/05/01 02:39:06;;;;;;;18.63;11.52;;;8.60;81.70;;;;;;5072505;28;20044;-72
2022/05/01 02:41:34;;;;;;;18.05;12.65;;;8.60;81.90;;;;;;5062665;28;20048;-72
2022/05/01 02:44:03;;;;;;;20.95;13.48;;;8.60;81.90;;;;;;5051925;28;20068;-72
2022/05/01 02:46:32;;;;;;;23.02;13.38;;;8.60;81.90;;;;;;5052357;28;20041;-72
2022/05/01 02:49:00;;;;;;;21.27;13.60;;;8.50;82.10;;;;;;5052350;28;20049;-72
2022/05/01 02:51:28;;;;;;;22.60;13.93;;;8.50;82.30;;;;;;5051773;28;20060;-72
2022/05/01 02:53:56;;;;;;;26.90;14.52;;;8.50;82.40;;;;;;5051427;28;20502;-72
2022/05/01 02:56:24;;;;;;;19.85;13.88;;;8.50;82.40;;;;;;5052436;28;20582;-72
2022/05/01 02:58:51;;;;;;;23.33;13.10;;;8.40;82.50;;;;;;5052164;28;20068;-72
2022/05/01 03:01:19;;;;;;;22.98;14.52;;;8.40;82.70;;;;;;5064736;28;20483;-72
2022/05/01 03:03:47;;;;;;;21.33;14.18;;;8.40;82.80;;;;;;5072010;28;20048;-72
2022/05/01 03:06:15;;;;;;;19.00;14.38;;;8.40;82.80;;;;;;5072164;28;20051;-72
2022/05/01 03:08:44;;;;;;;25.33;16.50;;;8.40;82.70;;;;;;5071593;28;20051;-72
2022/05/01 03:11:12;;;;;;;25.58;14.65;;;8.50;82.70;;;;;;5071796;28;20041;-72
2022/05/01 03:13:39;;;;;;;22.27;14.75;;;8.50;82.90;;;;;;5075412;28;20049;-72
2022/05/01 03:16:07;;;;;;;22.60;15.30;;;8.50;82.80;;;;;;5056048;28;20045;-72
2022/05/01 03:24:07;;;;;;;20.45;14.18;;;8.60;82.70;;;;;;5051883;28;20537;-72
2022/05/01 03:26:35;;;;;;;18.88;13.38;;;8.60;82.60;;;;;;5050973;28;20518;-72
2022/05/01 03:29:02;;;;;;;21.13;13.23;;;8.60;82.60;;;;;;5050803;28;20529;-72
2022/05/01 03:31:30;;;;;;;23.58;14.07;;;8.60;82.60;;;;;;5050577;28;20072;-72
2022/05/01 03:33:59;;;;;;;20.48;13.98;;;8.50;82.70;;;;;;5051756;28;20045;-72
2022/05/01 03:36:26;;;;;;;23.10;13.82;;;8.50;82.60;;;;;;5050920;28;20064;-72
2022/05/01 03:38:54;;;;;;;22.40;13.80;;;8.50;82.70;;;;;;5051686;28;20044;-72
2022/05/01 03:41:21;;;;;;;22.63;14.75;;;8.40;82.80;;;;;;5060761;28;20059;-72
2022/05/01 03:43:49;;;;;;;22.33;13.65;;;8.40;82.90;;;;;;5071525;28;20036;-72
2022/05/01 03:46:20;;;;;;;23.42;14.15;;;8.30;83.10;;;;;;5071649;28;20083;-72
2022/05/01 03:48:48;;;;;;;19.13;13.48;;;8.30;83.10;;;;;;5067929;28;20060;-72
2022/05/01 03:51:16;;;;;;;18.52;12.65;;;8.30;83.20;;;;;;5051410;28;20045;-72
2022/05/01 03:53:47;;;;;;;20.75;13.32;;;8.30;83.30;;;;;;5068522;28;20044;-72
2022/05/01 03:56:15;;;;;;;22.67;13.07;;;8.30;83.30;;;;;;5071697;28;20509;-72
2022/05/01 03:58:42;;;;;;;20.33;13.50;;;8.30;83.70;;;;;;5071477;28;20056;-72
2022/05/01 04:01:10;;;;;;;20.20;13.60;;;8.20;83.70;;;;;;5071147;28;20513;-72
2022/05/01 04:03:38;;;;;;;22.35;13.95;;;8.20;83.80;;;;;;5071487;28;20044;-72
2022/05/01 04:06:06;;;;;;;18.63;12.88;;;8.20;83.80;;;;;;5068616;28;20044;-72
2022/05/01 04:08:35;;;;;;;22.23;13.35;;;8.10;84.00;;;;;;5053532;28;20048;-72
2022/05/01 04:11:03;;;;;;;20.85;12.65;;;8.10;84.10;;;;;;5040803;28;20053;-71
2022/05/01 04:13:32;;;;;;;23.33;14.40;;;8.10;84.30;;;;;;5091339;28;20044;-72
2022/05/01 04:16:00;;;;;;;19.60;13.30;;;8.00;84.40;;;;;;5091703;28;20063;-72
2022/05/01 04:18:28;;;;;;;22.25;13.27;;;8.00;84.50;;;;;;5091178;28;20043;-72
2022/05/01 04:20:55;;;;;;;24.17;13.57;;;8.10;84.50;;;;;;5091635;28;20067;-72
2022/05/01 04:23:23;;;;;;;21.33;13.10;;;8.00;84.50;;;;;;5090699;28;20048;-72
2022/05/01 04:25:51;;;;;;;20.70;12.38;;;8.00;84.60;;;;;;5075567;28;20055;-72
2022/05/01 04:28:19;;;;;;;23.13;13.35;;;8.00;84.70;;;;;;5071331;28;20048;-72
2022/05/01 04:30:50;;;;;;;24.15;13.43;;;7.90;84.80;;;;;;5070132;28;20402;-72
2022/05/01 04:33:18;;;;;;;23.35;13.25;;;7.90;84.80;;;;;;5071303;28;20195;-71
2022/05/01 04:35:47;;;;;;;23.85;13.15;;;7.90;84.90;;;;;;5070003;28;20045;-71
2022/05/01 04:38:20;;;;;;;22.42;13.50;;;8.00;84.90;;;;;;5071279;28;20048;-71
2022/05/01 04:40:50;;;;;;;20.27;13.07;;;7.90;84.90;;;;;;5076179;28;20043;-71
2022/05/01 04:43:22;;;;;;;25.25;13.88;;;7.90;85.00;;;;;;5093916;28;20048;-71
2022/05/01 04:45:55;;;;;;;19.35;12.20;;;7.80;85.00;;;;;;5077099;28;20385;-71
2022/05/01 04:48:25;;;;;;;19.45;12.52;;;7.90;85.20;;;;;;5094731;28;20063;-71
2022/05/01 04:50:52;;;;;;;20.73;11.65;;;7.90;85.20;;;;;;5095219;28;20229;-71
2022/05/01 04:53:21;;;;;;;19.52;11.27;;;7.90;85.30;;;;;;5094735;28;20040;-71
2022/05/01 04:55:52;;;;;;;20.65;11.95;;;7.90;85.30;;;;;;5094993;28;20047;-72
2022/05/01 04:58:23;;;;;;;21.45;11.68;;;7.80;85.40;;;;;;5076661;28;20505;-71
2022/05/01 05:00:51;;;;;;;18.17;11.73;;;7.80;85.60;;;;;;5083354;28;20063;-71
2022/05/01 05:03:18;;;;;;;17.73;10.85;;;7.80;85.60;;;;;;5094952;28;20043;-71
2022/05/01 05:05:46;;;;;;;18.77;11.13;;;7.80;85.70;;;;;;5094707;28;20044;-71
2022/05/01 05:11:01;;;;;;;17.58;11.15;;;7.80;85.80;;;;;;5091744;28;20060;-71
2022/05/01 05:13:28;;;;;;;18.60;11.13;;;7.80;85.70;;;;;;5073243;28;20068;-71
2022/05/01 05:15:59;;;;;;;19.13;10.88;;;7.80;85.70;;;;;;5036683;28;20045;-72
2022/05/01 05:18:28;;;;;;;20.77;10.55;;;7.80;85.90;;;;;;5061183;28;20041;-71
2022/05/01 05:20:56;;;;;;;15.88;10.13;;;7.80;85.90;;;;;;5074136;28;20040;-71
2022/05/01 05:23:24;;;;;;;15.65;10.32;;;7.80;86.00;;;;;;5073964;28;20048;-71
2022/05/01 05:25:51;;;;;;;17.98;10.98;;;7.80;86.10;;;;;;5073891;28;20047;-72
2022/05/01 05:28:19;;;;;;;18.85;11.05;;;7.80;86.30;;;;;;5074081;28;20063;-71
2022/05/01 05:30:48;;;;;;;15.30;10.20;;;7.80;86.40;;;;;;5070284;28;20045;-71
2022/05/01 05:33:18;;;;;;;17.20;10.38;;;7.80;86.40;;;;;;5019393;28;20076;-71
2022/05/01 05:35:46;;;;;;;19.15;11.10;;;7.70;86.40;;;;;;5053963;28;20052;-71
2022/05/01 05:38:14;;;;;;;18.70;10.63;;;7.80;86.40;;;;;;5053074;28;20060;-71
2022/05/01 05:40:41;;;;;;;15.57;10.68;;;7.80;86.40;;;;;;5057362;28;20040;-71
2022/05/01 05:43:09;;;;;;;18.38;11.38;;;7.80;86.40;;;;;;5073961;28;20045;-71
2022/05/01 05:45:37;;;;;;;16.88;10.85;;;7.80;86.50;;;;;;5072985;28;20061;-71
2022/05/01 05:48:06;;;;;;;17.88;10.25;;;7.80;86.60;;;;;;5049770;28;20061;-71
2022/05/01 05:50:34;;;;;;;19.55;10.63;;;7.80;86.60;;;;;;5053855;28;20339;-71
2022/05/01 05:53:01;;;;;;;18.77;10.75;;;7.80;86.60;;;;;;5053004;28;20049;-71
2022/05/01 05:55:33;;;;;;;13.55;10.30;;;7.80;86.70;;;;;;5052755;28;20053;-71
2022/05/01 05:58:02;;;;;;;15.18;10.52;;;7.80;86.60;;;;;;5053594;28;20483;-71
2022/05/01 06:00:30;;;;;;;17.85;10.18;;;7.80;86.60;;;;;;5059535;28;20433;-72
2022/05/01 06:02:58;;;;;;;14.30;9.95;;;7.80;86.70;;;;;;5073450;28;20394;-72
2022/05/01 06:05:26;;;;;;;16.02;10.27;;;7.80;86.70;;;;;;5063953;28;20408;-72
2022/05/01 06:07:54;;;;;;;14.82;10.30;;;7.80;86.70;;;;;;5052465;28;20057;-72
2022/05/01 06:10:22;;;;;;;17.75;10.82;;;7.80;86.70;;;;;;5046377;28;20132;-72
2022/05/01 06:12:49;;;;;;;14.80;9.88;;;7.90;86.70;;;;;;5072471;28;20060;-72
2022/05/01 06:15:20;;;;;;;17.85;11.25;;;7.80;86.70;;;;;;5055685;28;20044;-72
2022/05/01 06:17:47;;;;;;;21.63;11.52;;;7.90;86.60;;;;;;5073127;28;20048;-72
2022/05/01 06:20:15;;;;;;;19.33;11.18;;;8.00;86.60;;;;;;5073044;28;20044;-73
2022/05/01 06:22:43;;;;;;;16.92;10.73;;;8.10;86.60;;;;;;5060700;28;20063;-72
2022/05/01 06:25:10;;;;;;;15.40;10.48;;;8.10;86.50;;;;;;5062338;28;20067;-72
2022/05/01 06:27:38;;;;;;;14.55;10.52;;;8.20;86.40;;;;;;5071344;28;20063;-72
2022/05/01 06:30:07;;;;;;;21.05;11.38;;;8.20;86.40;;;;;;5072603;28;20064;-72
2022/05/01 06:32:35;;;;;;;15.75;11.07;;;8.20;86.30;;;;;;5075413;28;20508;-72
2022/05/01 06:35:03;;;;;;;17.75;11.02;;;8.20;86.30;;;;;;5072707;28;20048;-72
2022/05/01 06:37:35;;;;;;;14.05;10.40;;;8.30;86.30;;;;;;5072628;28;20482;-72
2022/05/01 06:40:04;;;;;;;17.05;10.93;;;8.30;86.20;;;;;;5058910;28;20056;-72
2022/05/01 06:42:34;;;;;;;19.90;10.40;;;8.30;86.20;;;;;;5072688;28;20040;-72
2022/05/01 06:45:02;;;;;;;15.20;10.77;;;8.40;86.20;;;;;;5074227;28;20063;-73
2022/05/01 06:47:30;;;;;;;18.77;10.20;;;8.40;86.10;;;;;;5080127;28;20048;-72
2022/05/01 06:49:58;;;;;;;16.25;11.45;;;8.40;86.10;;;;;;5082525;28;20481;-72
2022/05/01 06:52:26;;;;;;;14.30;11.00;;;8.50;86.10;;;;;;5062901;28;20063;-72
2022/05/01 06:54:54;;;;;;;17.92;11.07;;;8.60;86.10;;;;;;5081715;28;20051;-72
2022/05/01 06:57:22;;;;;;;16.50;10.35;;;8.60;86.00;;;;;;5063382;28;20036;-72
2022/05/01 06:59:50;;;;;;;13.00;10.10;;;8.70;85.90;;;;;;5079482;28;20048;-72
2022/05/01 07:02:17;;;;;;;14.38;10.43;;;8.80;85.80;;;;;;5084366;28;20036;-72
2022/05/01 07:04:47;;;;;;;12.77;10.27;;;8.80;85.80;;;;;;5064488;28;20044;-72
2022/05/01 07:07:14;;;;;;;15.02;11.50;;;8.80;85.60;;;;;;5078974;28;20055;-72
2022/05/01 07:09:42;;;;;;;13.43;9.70;;;8.80;85.60;;;;;;5076700;28;20154;-72
2022/05/01 07:12:11;;;;;;;17.80;10.48;;;8.80;85.60;;;;;;5078575;28;20032;-72
2022/05/01 07:14:39;;;;;;;15.10;10.10;;;8.80;85.50;;;;;;5100775;28;20063;-72
2022/05/01 07:17:07;;;;;;;14.00;10.20;;;8.80;85.50;;;;;;5099558;28;20106;-72
2022/05/01 07:19:35;;;;;;;16.45;10.52;;;8.80;85.50;;;;;;5100694;28;20048;-72
2022/05/01 07:22:03;;;;;;;15.57;10.25;;;8.80;85.50;;;;;;5101105;28;20420;-73
2022/05/01 07:24:30;;;;;;;17.25;10.73;;;8.80;85.60;;;;;;5095734;28;20047;-72
2022/05/01 07:26:58;;;;;;;17.75;10.85;;;8.80;85.50;;;;;;5101985;28;20048;-72
2022/05/01 07:29:26;;;;;;;16.77;10.93;;;8.80;85.60;;;;;;5099442;28;20611;-72
2022/05/01 07:31:54;;;;;;;13.88;10.35;;;8.80;85.60;;;;;;5096948;28;20048;-72
2022/05/01 07:34:22;;;;;;;14.98;10.45;;;8.90;85.60;;;;;;5098968;28;20059;-72
2022/05/01 07:36:49;;;;;;;17.17;11.35;;;9.00;85.50;;;;;;5099421;28;20040;-71
2022/05/01 07:39:17;;;;;;;15.85;10.02;;;9.00;85.50;;;;;;5100087;28;20040;-72
2022/05/01 07:41:45;;;;;;;14.82;10.45;;;9.10;85.40;;;;;;5099950;28;20056;-72
2022/05/01 07:44:13;;;;;;;14.43;10.63;;;9.20;85.50;;;;;;5101627;28;20040;-72
2022/05/01 07:46:42;;;;;;;15.32;11.02;;;9.30;85.40;;;;;;5095876;28;20067;-72
2022/05/01 07:49:11;;;;;;;15.93;10.32;;;9.40;85.40;;;;;;5100093;28;20040;-73
2022/05/01 07:51:40;;;;;;;14.57;10.48;;;9.50;85.10;;;;;;5099403;28;20048;-73
2022/05/01 07:54:07;;;;;;;15.93;10.90;;;9.60;85.00;;;;;;5100480;28;20044;-71
2022/05/01 07:56:36;;;;;;;15.07;11.40;;;9.60;84.90;;;;;;5089652;28;20438;-71
2022/05/01 07:59:03;;;;;;;15.55;10.70;;;9.80;84.50;;;;;;5098375;28;20040;-71
2022/05/01 08:01:31;;;;;;;16.17;11.05;;;9.80;84.20;;;;;;5095161;28;20044;-71
2022/05/01 08:06:46;;;;;;;15.57;11.43;;;10.00;84.10;;;;;;5099896;28;20036;-71
2022/05/01 08:09:14;;;;;;;14.50;10.73;;;10.20;83.80;;;;;;5101525;28;20047;-71
2022/05/01 08:11:42;;;;;;;14.93;11.45;;;10.30;83.50;;;;;;5086599;28;20045;-71
2022/05/01 08:14:12;;;;;;;13.38;11.38;;;10.40;83.40;;;;;;5076069;28;20053;-71
2022/05/01 08:16:40;;;;;;;14.88;10.68;;;10.60;83.20;;;;;;5079911;28;20047;-72
2022/05/01 08:21:55;;;;;;;14.35;11.18;;;10.60;82.40;;;;;;5075283;28;20055;-72
2022/05/01 08:24:22;;;;;;;16.98;11.88;;;10.60;82.30;;;;;;5079159;28;20048;-72
2022/05/01 08:26:50;;;;;;;16.52;11.35;;;10.60;82.40;;;;;;5081445;28;20432;-73
2022/05/01 08:29:18;;;;;;;16.98;10.75;;;10.60;82.30;;;;;;5082510;28;20095;-73
2022/05/01 08:31:49;;;;;;;15.63;11.40;;;10.60;82.30;;;;;;5056210;28;20051;-72
2022/05/01 08:34:17;;;;;;;15.23;10.98;;;10.60;82.40;;;;;;5038417;28;20044;-72
2022/05/01 08:36:45;;;;;;;14.70;10.57;;;10.60;82.40;;;;;;5068948;28;20056;-73
2022/05/01 08:39:13;;;;;;;13.68;11.30;;;10.60;82.10;;;;;;5056065;28;20120;-72
2022/05/01 08:41:41;;;;;;;14.85;11.57;;;10.60;82.20;;;;;;5054922;28;20116;-73
2022/05/01 08:44:14;;;;;;;13.25;10.52;;;10.70;82.40;;;;;;5082289;28;20056;-75
2022/05/01 08:46:54;;;;;;;14.50;10.00;;;10.70;82.10;;;;;;5056530;28;20037;-72
2022/05/01 08:49:24;;;;;;;16.33;11.65;;;10.80;81.90;;;;;;5051178;28;20037;-78
2022/05/01 08:51:52;;;;;;;13.68;10.35;;;10.80;81.80;;;;;;5071083;28;20048;-74
2022/05/01 08:54:22;;;;;;;11.55;10.35;;;10.80;81.70;;;;;;5056562;28;20049;-72
2022/05/01 08:56:50;;;;;;;13.55;10.18;;;10.80;81.60;;;;;;5075267;28;20044;-72
2022/05/01 08:59:18;;;;;;;11.60;9.98;;;10.80;81.70;;;;;;5069848;28;20048;-72
2022/05/01 09:01:46;;;;;;;15.30;11.15;;;10.90;82.00;;;;;;5064029;28;20049;-72
2022/05/01 09:04:15;;;;;;;14.15;10.68;;;11.00;82.00;;;;;;5073542;28;20048;-72
2022/05/01 09:06:44;;;;;;;13.18;10.55;;;11.30;81.70;;;;;;5063140;28;20041;-72
2022/05/01 09:09:22;;;;;;;14.80;9.68;;;11.40;81.40;;;;;;5061264;28;20051;-73
2022/05/01 09:14:42;;;;;;;13.82;10.10;;;11.60;80.50;;;;;;5072366;28;20536;-72
2022/05/01 09:17:23;;;;;;;12.82;9.55;;;11.70;80.70;;;;;;5047091;28;20049;-72
2022/05/01 09:20:03;;;;;;;12.52;10.02;;;11.80;80.40;;;;;;5064725;28;20056;-73
2022/05/01 09:22:53;;;;;;;13.73;10.25;;;11.80;80.30;;;;;;5071370;28;20044;-72
2022/05/01 09:25:22;;;;;;;11.98;9.57;;;11.90;80.00;;;;;;5072444;28;20045;-72
2022/05/01 09:27:57;;;;;;;12.95;10.07;;;12.00;79.60;;;;;;5055570;28;20053;-72
2022/05/01 09:30:45;;;;;;;11.30;9.75;;;12.00;79.50;;;;;;5071890;28;20053;-72
2022/05/01 09:33:20;;;;;;;12.35;10.35;;;12.20;79.60;;;;;;5054219;28;20540;-73
2022/05/01 09:35:49;;;;;;;13.43;10.70;;;12.20;78.90;;;;;;5073451;28;20071;-73
2022/05/01 09:38:25;;;;;;;13.43;9.38;;;12.20;79.20;;;;;;5073728;28;20497;-72
2022/05/01 09:41:01;;;;;;;12.48;9.90;;;12.30;79.10;;;;;;5068554;28;20041;-73
2022/05/01 09:43:36;;;;;;;11.18;9.65;;;12.30;79.20;;;;;;5065802;28;20060;-73
2022/05/01 09:46:23;;;;;;;13.32;9.52;;;12.50;78.80;;;;;;5062599;28;20363;-72
2022/05/01 09:49:06;;;;;;;10.57;9.48;;;12.60;78.40;;;;;;5062034;28;20052;-72
2022/05/01 09:51:38;;;;;;;12.70;10.32;;;12.70;78.00;;;;;;5055507;28;20044;-72
2022/05/01 09:54:06;;;;;;;12.55;9.80;;;12.70;77.90;;;;;;5064414;28;20045;-72
2022/05/01 09:56:57;;;;;;;11.13;9.48;;;12.70;77.70;;;;;;5054450;28;20044;-72
2022/05/01 09:59:27;;;;;;;11.52;9.45;;;12.70;77.80;;;;;;5065889;28;20041;-72
2022/05/01 10:01:55;;;;;;;11.02;9.32;;;12.60;77.80;;;;;;5052903;28;20041;-72
2022/05/01 10:04:24;;;;;;;13.95;10.43;;;12.60;78.00;;;;;;5063725;28;20048;-72
2022/05/01 10:06:53;;;;;;;10.43;8.55;;;12.60;78.00;;;;;;5073357;28;20442;-72
2022/05/01 10:09:26;;;;;;;8.45;7.63;;;12.80;78.20;;;;;;5055116;28;20067;-72
2022/05/01 10:11:56;;;;;;;9.43;7.90;;;12.80;77.60;;;;;;5063128;28;20044;-72
2022/05/01 10:14:26;;;;;;;11.15;9.05;;;12.90;77.10;;;;;;5071064;28;20049;-72
2022/05/01 10:16:56;;;;;;;10.27;8.77;;;13.00;77.30;;;;;;5071969;28;20146;-73
2022/05/01 10:19:24;;;;;;;10.82;8.95;;;13.10;77.10;;;;;;5060063;28;20045;-73
2022/05/01 10:22:00;;;;;;;9.25;7.72;;;13.20;76.50;;;;;;5067139;28;20052;-73
2022/05/01 10:24:30;;;;;;;8.93;7.03;;;13.20;76.70;;;;;;5048115;28;20059;-73
2022/05/01 10:27:13;;;;;;;9.48;7.25;;;13.30;76.60;;;;;;5059357;28;20393;-72
2022/05/01 10:33:17;;;;;;;8.55;6.18;;;13.30;75.90;;;;;;5055909;28;20057;-71
2022/05/01 10:35:57;;;;;;;7.50;6.80;;;13.30;75.30;;;;;;5034935;28;20044;-72
2022/05/01 10:38:31;;;;;;;8.57;7.13;;;13.30;75.10;;;;;;5062980;28;20072;-71
2022/05/01 10:41:00;;;;;;;7.53;6.72;;;13.20;75.50;;;;;;5052254;28;20410;-72
2022/05/01 10:43:37;;;;;;;7.07;6.38;;;13.20;75.80;;;;;;5055094;28;20051;-72
2022/05/01 10:46:26;;;;;;;7.32;6.35;;;13.20;75.80;;;;;;5051395;28;20418;-72
2022/05/01 10:48:58;;;;;;;8.48;6.40;;;13.40;75.80;;;;;;5052287;28;20525;-72
2022/05/01 10:51:31;;;;;;;6.07;5.47;;;13.70;75.30;;;;;;5052641;28;20044;-72
2022/05/01 10:54:10;;;;;;;7.97;6.10;;;13.80;75.00;;;;;;5045491;28;20048;-72
2022/05/01 10:56:51;;;;;;;7.00;6.35;;;13.80;74.70;;;;;;5065432;28;20060;-72
2022/05/01 10:59:39;;;;;;;7.22;6.53;;;13.70;74.50;;;;;;5063151;28;20040;-72
2022/05/01 11:02:35;;;;;;;6.47;5.88;;;13.50;74.80;;;;;;5072504;28;20053;-72
2022/05/01 11:05:04;;;;;;;7.50;6.80;;;13.40;74.70;;;;;;5071023;28;20055;-72
2022/05/01 11:07:34;;;;;;;9.05;6.65;;;13.20;74.80;;;;;;5053586;28;20048;-72
2022/05/01 11:10:05;;;;;;;6.70;6.00;;;13.10;75.20;;;;;;5064592;28;20059;-73
2022/05/01 11:12:35;;;;;;;8.52;6.47;;;13.00;75.40;;;;;;5056014;28;20406;-73
2022/05/01 11:15:11;;;;;;;7.85;5.82;;;12.80;75.80;;;;;;5072212;28;20048;-73
2022/05/01 11:17:39;;;;;;;7.15;6.43;;;12.70;76.20;;;;;;5058097;28;20055;-73
2022/05/01 11:20:14;;;;;;;6.68;5.97;;;12.60;76.40;;;;;;5052561;28;20044;-71
2022/05/01 11:22:45;;;;;;;7.35;6.65;;;12.50;76.80;;;;;;5052139;28;20383;-72
2022/05/01 11:25:34;;;;;;;8.02;7.13;;;12.50;77.10;;;;;;5052067;28;20513;-72
2022/05/01 11:28:02;;;;;;;8.80;7.40;;;12.70;77.30;;;;;;5034097;28;20052;-71
2022/05/01 11:30:31;;;;;;;10.23;7.30;;;12.70;77.30;;;;;;5033835;28;20052;-72
2022/05/01 11:33:03;;;;;;;7.85;7.05;;;12.80;76.80;;;;;;5052049;28;20060;-71
2022/05/01 11:35:56;;;;;;;7.63;6.90;;;12.80;76.70;;;;;;5051926;28;20053;-72
2022/05/01 11:38:54;;;;;;;8.50;7.68;;;12.70;76.80;;;;;;5056170;28;20053;-71
2022/05/01 11:41:42;;;;;;;10.88;7.75;;;12.50;77.30;;;;;;5036509;28;20053;-72
2022/05/01 11:44:20;;;;;;;7.72;7.00;;;12.40;77.60;;;;;;5064786;28;20052;-72
2022/05/01 11:46:48;;;;;;;8.25;7.43;;;12.30;77.90;;;;;;5052275;28;20060;-71
2022/05/01 11:49:16;;;;;;;8.32;7.53;;;12.30;78.00;;;;;;5056046;28;20048;-73
2022/05/01 11:51:47;;;;;;;12.82;9.50;;;12.30;78.20;;;;;;5071745;28;20048;-72
2022/05/01 11:54:15;;;;;;;9.07;8.18;;;12.20;78.40;;;;;;5070019;28;20053;-71
2022/05/01 12:02:25;;;;;;;8.88;7.97;;;12.30;78.70;;;;;;5054819;28;20511;-70
2022/05/01 12:05:01;;;;;;;9.20;8.30;;;12.30;78.70;;;;;;5021573;28;20060;-71
2022/05/01 12:07:29;;;;;;;8.80;7.90;;;12.30;78.60;;;;;;5069652;28;20478;-72
2022/05/01 12:09:57;;;;;;;11.10;8.30;;;12.30;78.60;;;;;;5075358;28;20056;-71
2022/05/01 12:12:29;;;;;;;9.90;8.35;;;12.30;78.60;;;;;;5077203;28;20051;-70
2022/05/01 12:14:58;;;;;;;9.27;8.05;;;12.20;78.80;;;;;;5075528;28;20401;-70
2022/05/01 12:17:26;;;;;;;10.82;8.45;;;12.20;78.90;;;;;;5075208;28;20057;-70
2022/05/01 12:19:54;;;;;;;9.77;8.43;;;12.20;78.90;;;;;;5074102;28;20054;-71
2022/05/01 12:22:23;;;;;;;10.80;8.77;;;12.10;78.90;;;;;;5074403;28;20063;-71
2022/05/01 12:24:54;;;;;;;11.38;9.05;;;12.10;79.00;;;;;;5074548;28;20059;-72
2022/05/01 12:27:26;;;;;;;9.70;8.70;;;12.20;79.20;;;;;;5074047;28;20063;-70
2022/05/01 12:29:55;;;;;;;8.82;7.93;;;12.30;79.20;;;;;;5057204;28;20493;-71
2022/05/01 12:32:22;;;;;;;11.13;8.40;;;12.30;79.20;;;;;;5074917;28;20051;-70
2022/05/01 12:34:50;;;;;;;8.90;8.10;;;12.30;79.00;;;;;;5074793;28;20501;-71
2022/05/01 12:37:24;;;;;;;8.93;8.02;;;12.30;79.00;;;;;;5074769;28;20053;-71
2022/05/01 12:40:12;;;;;;;10.40;8.18;;;12.40;78.90;;;;;;5060011;28;20048;-71
2022/05/01 12:45:43;;;;;;;10.25;7.82;;;12.60;78.60;;;;;;5069006;28;20131;-72
2022/05/01 12:48:13;;;;;;;9.85;7.20;;;12.70;78.50;;;;;;5028438;28;20351;-71
2022/05/01 12:50:43;;;;;;;7.38;6.68;;;12.80;78.30;;;;;;5075477;28;20060;-71
2022/05/01 12:53:21;;;;;;;7.90;7.10;;;13.10;77.40;;;;;;5069067;28;20398;-71
2022/05/01 12:55:53;;;;;;;7.45;6.75;;;13.30;77.00;;;;;;5060371;28;20045;-71
2022/05/01 12:58:34;;;;;;;8.30;7.10;;;13.50;76.60;;;;;;5055627;28;20052;-71
2022/05/01 13:01:05;;;;;;;6.85;6.15;;;13.70;76.10;;;;;;5073672;28;20052;-71
2022/05/01 13:03:37;;;;;;;7.43;6.47;;;13.80;75.20;;;;;;5074444;28;20367;-71
2022/05/01 13:06:13;;;;;;;7.18;6.47;;;13.70;74.80;;;;;;5074406;28;20048;-71
2022/05/01 13:08:40;;;;;;;7.47;6.78;;;13.40;74.30;;;;;;5074585;28;20045;-71
2022/05/01 13:11:15;;;;;;;8.20;7.32;;;13.10;74.90;;;;;;5050130;28;20053;-71
2022/05/01 13:13:50;;;;;;;8.57;7.50;;;12.90;75.60;;;;;;5062077;28;20033;-72
2022/05/01 13:16:23;;;;;;;9.25;7.45;;;12.80;76.30;;;;;;5055729;28;20041;-70
2022/05/01 13:18:56;;;;;;;10.55;7.35;;;12.80;76.90;;;;;;5065477;28;20047;-70
2022/05/01 13:21:26;;;;;;;10.00;7.93;;;12.80;77.20;;;;;;5062422;28;20345;-71
2022/05/01 13:24:05;;;;;;;12.05;7.93;;;12.90;77.10;;;;;;5036272;28;20521;-71
2022/05/01 13:26:37;;;;;;;9.43;7.45;;;13.10;76.80;;;;;;5054250;28;20049;-71
2022/05/01 13:29:09;;;;;;;8.48;7.10;;;13.30;76.10;;;;;;5054431;28;20048;-70